Jay Michael — WDD2051 — position and weather

sailwx.info

Track history (hours):
 
Tides and Currents Weather Stations Pressure Air Temp Water Temp Dewpoint Dewpoint Depression Visibility Wind Speed Wind Dir Waves Ship Positions

Jay Michael

Owner: Sterling Equipment Inc., Quincy, MA. More information available from US FCC via Universal Licensing System and Coast Guard Vessel Documentation Center.

Last reported at 2015-Jul-07 05:33 UTC. Time now 2015-Jul-08 02:15 UTC.
Position N 42°29' W 070°48'.

Length 21 m; draft 2.5 m.

Type: Tug. MMSI: 367110280.

Date/timePositionNaut miles runAvg speedWind from/ knotsBaromVisibWave heightAir tempDewpointWater temp
2015-Jul-07 05:33N 42°29' W 070°48'7 7.0
2015-Jul-07 04:33N 42°22' W 070°50'6 5.4
2015-Jul-07 03:30N 42°18' W 070°55'  
2015-Jul-01 18:04N 41°45' W 070°35'12 7.2
2015-Jul-01 16:24N 41°36' W 070°45'8 3.7
2015-Jul-01 14:08N 41°32' W 070°55'6 7.8
2015-Jul-01 13:24N 41°28' W 071°00'7 8.8
2015-Jul-01 12:33N 41°26' W 071°10'9 8.7
2015-Jul-01 11:33N 41°23' W 071°21'8 8.2
2015-Jul-01 10:32N 41°21' W 071°31'8 8.6
2015-Jul-01 09:33N 41°17' W 071°42'9 8.9
2015-Jul-01 08:33N 41°15' W 071°53'1010.4
2015-Jul-01 07:33N 41°14' W 072°07'1111.5
2015-Jul-01 06:33N 41°12' W 072°22'1110.8
2015-Jul-01 05:33N 41°11' W 072°36'10 9.8
2015-Jul-01 04:33N 41°08' W 072°49'9 9.3
2015-Jul-01 03:33N 41°06' W 073°01'9 8.8
2015-Jul-01 02:33N 41°03' W 073°12'9 8.7
2015-Jul-01 01:33N 41°01' W 073°23'8 8.4
2015-Jul-01 00:33N 40°58' W 073°34'8 8.5
2015-Jun-30 23:34N 40°53' W 073°43'11 8.4
2015-Jun-30 22:17N 40°48' W 073°55'810.5
2015-Jun-30 21:33N 40°42' W 074°01'7 6.8
2015-Jun-30 20:33N 40°39' W 074°09'0 0.4
2015-Jun-30 19:33N 40°39' W 074°09'0 0.0
2015-Jun-30 18:33N 40°39' W 074°09'2 2.0
2015-Jun-30 17:33N 40°38' W 074°12'0 0.5
2015-Jun-30 16:33N 40°39' W 074°11'1 0.8
2015-Jun-30 15:33N 40°38' W 074°12'2 2.4
2015-Jun-30 14:33N 40°39' W 074°09'0 0.0
2015-Jun-30 13:33N 40°39' W 074°09'0 0.0
2015-Jun-30 12:28N 40°39' W 074°09'1 0.8
2015-Jun-30 11:33N 40°38' W 074°10'2 1.7
2015-Jun-30 10:33N 40°38' W 074°12'0 0.0
2015-Jun-30 09:33N 40°38' W 074°12'0 0.0
2015-Jun-30 08:33N 40°38' W 074°12'0 0.0
2015-Jun-30 07:33N 40°38' W 074°12'0 0.0
2015-Jun-30 06:33N 40°38' W 074°12'0 0.0
2015-Jun-30 05:33N 40°38' W 074°12'0 0.0
2015-Jun-30 04:33N 40°38' W 074°12'0 0.0
2015-Jun-30 03:33N 40°38' W 074°12'0 0.0
2015-Jun-30 02:33N 40°38' W 074°12'0 0.0
2015-Jun-30 01:33N 40°38' W 074°12'0 0.0
2015-Jun-30 00:33N 40°38' W 074°12'0 0.0
2015-Jun-29 23:33N 40°38' W 074°12'0 0.0
2015-Jun-29 22:33N 40°38' W 074°12'0 0.0
2015-Jun-29 21:33N 40°38' W 074°12'0 0.0
2015-Jun-29 20:32N 40°38' W 074°12'0 0.0
2015-Jun-29 19:33N 40°38' W 074°12'0 0.0
2015-Jun-29 18:33N 40°38' W 074°12'0 0.0
2015-Jun-29 17:33N 40°38' W 074°12'2 1.8
2015-Jun-29 16:33N 40°39' W 074°10'0 0.5
2015-Jun-29 15:33N 40°39' W 074°09'1 1.1
2015-Jun-29 14:33N 40°39' W 074°11'1 0.8
2015-Jun-29 13:07N 40°38' W 074°12'1 1.2
2015-Jun-29 12:33N 40°39' W 074°11'2 1.8
2015-Jun-29 11:33N 40°39' W 074°09'1 0.6
2015-Jun-29 10:26N 40°38' W 074°09'0 0.0
2015-Jun-29 09:27N 40°38' W 074°09'0 0.0
2015-Jun-29 08:22N 40°38' W 074°09'0 0.0
2015-Jun-29 07:33N 40°38' W 074°09'0 0.0
2015-Jun-29 06:33N 40°38' W 074°09'0 0.0
2015-Jun-29 05:32N 40°38' W 074°09'0 0.0
2015-Jun-29 04:33N 40°38' W 074°09'0 0.0
2015-Jun-29 03:33N 40°38' W 074°09'0 0.0
2015-Jun-29 02:33N 40°38' W 074°09'0 0.0
2015-Jun-29 01:33N 40°38' W 074°09'0 0.0
2015-Jun-29 00:32N 40°38' W 074°09'0 0.0
2015-Jun-28 23:33N 40°38' W 074°09'0 0.0
2015-Jun-28 22:33N 40°38' W 074°09'1 0.7
2015-Jun-28 21:33N 40°39' W 074°09'0 0.0
2015-Jun-28 20:31N 40°39' W 074°09'0 0.0
2015-Jun-28 19:32N 40°39' W 074°09'0 0.0
2015-Jun-28 18:33N 40°39' W 074°09'0 0.0
2015-Jun-28 17:33N 40°39' W 074°09'0 0.0
2015-Jun-28 16:33N 40°39' W 074°09'0 0.0
2015-Jun-28 15:33N 40°39' W 074°09'1 0.7
2015-Jun-28 14:33N 40°38' W 074°09'0 0.0
2015-Jun-28 13:33N 40°38' W 074°09'0 0.0
2015-Jun-28 12:32N 40°38' W 074°09'2 1.8
2015-Jun-28 11:31N 40°38' W 074°12'0 0.0
2015-Jun-28 10:33N 40°38' W 074°12'0 0.0
2015-Jun-28 09:33N 40°38' W 074°12'0 0.0
2015-Jun-28 08:33N 40°38' W 074°12'0 0.0
2015-Jun-28 07:33N 40°38' W 074°12'0 0.0
2015-Jun-28 06:34N 40°38' W 074°12'0 0.0
2015-Jun-28 05:33N 40°38' W 074°12'0 0.0
2015-Jun-28 04:33N 40°38' W 074°12'0 0.0
2015-Jun-28 03:33N 40°38' W 074°12'0 0.0
2015-Jun-28 02:34N 40°38' W 074°12'0 0.1
2015-Jun-28 01:33N 40°38' W 074°12'0 0.0
2015-Jun-28 00:32N 40°38' W 074°12'0 0.1
2015-Jun-27 23:33N 40°38' W 074°12'0 0.0
2015-Jun-27 22:33N 40°38' W 074°12'0 0.0
2015-Jun-27 21:33N 40°38' W 074°12'0 0.0
2015-Jun-27 20:32N 40°38' W 074°12'0 0.0
2015-Jun-27 19:32N 40°38' W 074°12'0 0.0
2015-Jun-27 18:33N 40°38' W 074°12'0 0.0
2015-Jun-27 17:33N 40°38' W 074°12'0 0.0
2015-Jun-27 16:33N 40°38' W 074°12'0 0.0
2015-Jun-27 15:33N 40°38' W 074°12'0 0.0
2015-Jun-27 14:33N 40°38' W 074°12'2 2.3
2015-Jun-27 13:31N 40°39' W 074°09'0 0.0
2015-Jun-27 12:31N 40°39' W 074°09'0 0.0
2015-Jun-27 11:33N 40°39' W 074°09'0 0.0
2015-Jun-27 10:33N 40°39' W 074°09'0 0.0
2015-Jun-27 09:33N 40°39' W 074°09'0 0.0
2015-Jun-27 08:33N 40°39' W 074°09'0 0.0
2015-Jun-27 07:29N 40°39' W 074°09'0 0.0
2015-Jun-27 06:33N 40°39' W 074°09'  
Track history (hours):
 
Tides and Currents Weather Stations Pressure Air Temp Water Temp Dewpoint Dewpoint Depression Visibility Wind Speed Wind Dir Waves Ship Positions

Jay Michael

Owner: Sterling Equipment Inc., Quincy, MA. More information available from US FCC via Universal Licensing System and Coast Guard Vessel Documentation Center.

Last reported at 2015-Jul-07 05:33 UTC. Time now 2015-Jul-08 02:15 UTC.
Position N 42°29' W 070°48'.

Length 21 m; draft 2.5 m.

Type: Tug. MMSI: 367110280.

Date/timePositionNaut miles runAvg speedWind from/ knotsBaromVisibWave heightAir tempDewpointWater temp
2015-Jul-07 05:33N 42°29' W 070°48'7 7.0
2015-Jul-07 04:33N 42°22' W 070°50'6 5.4
2015-Jul-07 03:30N 42°18' W 070°55'  
2015-Jul-01 18:04N 41°45' W 070°35'12 7.2
2015-Jul-01 16:24N 41°36' W 070°45'8 3.7
2015-Jul-01 14:08N 41°32' W 070°55'6 7.8
2015-Jul-01 13:24N 41°28' W 071°00'7 8.8
2015-Jul-01 12:33N 41°26' W 071°10'9 8.7
2015-Jul-01 11:33N 41°23' W 071°21'8 8.2
2015-Jul-01 10:32N 41°21' W 071°31'8 8.6
2015-Jul-01 09:33N 41°17' W 071°42'9 8.9
2015-Jul-01 08:33N 41°15' W 071°53'1010.4
2015-Jul-01 07:33N 41°14' W 072°07'1111.5
2015-Jul-01 06:33N 41°12' W 072°22'1110.8
2015-Jul-01 05:33N 41°11' W 072°36'10 9.8
2015-Jul-01 04:33N 41°08' W 072°49'9 9.3
2015-Jul-01 03:33N 41°06' W 073°01'9 8.8
2015-Jul-01 02:33N 41°03' W 073°12'9 8.7
2015-Jul-01 01:33N 41°01' W 073°23'8 8.4
2015-Jul-01 00:33N 40°58' W 073°34'8 8.5
2015-Jun-30 23:34N 40°53' W 073°43'11 8.4
2015-Jun-30 22:17N 40°48' W 073°55'810.5
2015-Jun-30 21:33N 40°42' W 074°01'7 6.8
2015-Jun-30 20:33N 40°39' W 074°09'0 0.4
2015-Jun-30 19:33N 40°39' W 074°09'0 0.0
2015-Jun-30 18:33N 40°39' W 074°09'2 2.0
2015-Jun-30 17:33N 40°38' W 074°12'0 0.5
2015-Jun-30 16:33N 40°39' W 074°11'1 0.8
2015-Jun-30 15:33N 40°38' W 074°12'2 2.4
2015-Jun-30 14:33N 40°39' W 074°09'0 0.0
2015-Jun-30 13:33N 40°39' W 074°09'0 0.0
2015-Jun-30 12:28N 40°39' W 074°09'1 0.8
2015-Jun-30 11:33N 40°38' W 074°10'2 1.7
2015-Jun-30 10:33N 40°38' W 074°12'0 0.0
2015-Jun-30 09:33N 40°38' W 074°12'0 0.0
2015-Jun-30 08:33N 40°38' W 074°12'0 0.0
2015-Jun-30 07:33N 40°38' W 074°12'0 0.0
2015-Jun-30 06:33N 40°38' W 074°12'0 0.0
2015-Jun-30 05:33N 40°38' W 074°12'0 0.0
2015-Jun-30 04:33N 40°38' W 074°12'0 0.0
2015-Jun-30 03:33N 40°38' W 074°12'0 0.0
2015-Jun-30 02:33N 40°38' W 074°12'0 0.0
2015-Jun-30 01:33N 40°38' W 074°12'0 0.0
2015-Jun-30 00:33N 40°38' W 074°12'0 0.0
2015-Jun-29 23:33N 40°38' W 074°12'0 0.0
2015-Jun-29 22:33N 40°38' W 074°12'0 0.0
2015-Jun-29 21:33N 40°38' W 074°12'0 0.0
2015-Jun-29 20:32N 40°38' W 074°12'0 0.0
2015-Jun-29 19:33N 40°38' W 074°12'0 0.0
2015-Jun-29 18:33N 40°38' W 074°12'0 0.0
2015-Jun-29 17:33N 40°38' W 074°12'2 1.8
2015-Jun-29 16:33N 40°39' W 074°10'0 0.5
2015-Jun-29 15:33N 40°39' W 074°09'1 1.1
2015-Jun-29 14:33N 40°39' W 074°11'1 0.8
2015-Jun-29 13:07N 40°38' W 074°12'1 1.2
2015-Jun-29 12:33N 40°39' W 074°11'2 1.8
2015-Jun-29 11:33N 40°39' W 074°09'1 0.6
2015-Jun-29 10:26N 40°38' W 074°09'0 0.0
2015-Jun-29 09:27N 40°38' W 074°09'0 0.0
2015-Jun-29 08:22N 40°38' W 074°09'0 0.0
2015-Jun-29 07:33N 40°38' W 074°09'0 0.0
2015-Jun-29 06:33N 40°38' W 074°09'0 0.0
2015-Jun-29 05:32N 40°38' W 074°09'0 0.0
2015-Jun-29 04:33N 40°38' W 074°09'0 0.0
2015-Jun-29 03:33N 40°38' W 074°09'0 0.0
2015-Jun-29 02:33N 40°38' W 074°09'0 0.0
2015-Jun-29 01:33N 40°38' W 074°09'0 0.0
2015-Jun-29 00:32N 40°38' W 074°09'0 0.0
2015-Jun-28 23:33N 40°38' W 074°09'0 0.0
2015-Jun-28 22:33N 40°38' W 074°09'1 0.7
2015-Jun-28 21:33N 40°39' W 074°09'0 0.0
2015-Jun-28 20:31N 40°39' W 074°09'0 0.0
2015-Jun-28 19:32N 40°39' W 074°09'0 0.0
2015-Jun-28 18:33N 40°39' W 074°09'0 0.0
2015-Jun-28 17:33N 40°39' W 074°09'0 0.0
2015-Jun-28 16:33N 40°39' W 074°09'0 0.0
2015-Jun-28 15:33N 40°39' W 074°09'1 0.7
2015-Jun-28 14:33N 40°38' W 074°09'0 0.0
2015-Jun-28 13:33N 40°38' W 074°09'0 0.0
2015-Jun-28 12:32N 40°38' W 074°09'2 1.8
2015-Jun-28 11:31N 40°38' W 074°12'0 0.0
2015-Jun-28 10:33N 40°38' W 074°12'0 0.0
2015-Jun-28 09:33N 40°38' W 074°12'0 0.0
2015-Jun-28 08:33N 40°38' W 074°12'0 0.0
2015-Jun-28 07:33N 40°38' W 074°12'0 0.0
2015-Jun-28 06:34N 40°38' W 074°12'0 0.0
2015-Jun-28 05:33N 40°38' W 074°12'0 0.0
2015-Jun-28 04:33N 40°38' W 074°12'0 0.0
2015-Jun-28 03:33N 40°38' W 074°12'0 0.0
2015-Jun-28 02:34N 40°38' W 074°12'0 0.1
2015-Jun-28 01:33N 40°38' W 074°12'0 0.0
2015-Jun-28 00:32N 40°38' W 074°12'0 0.1
2015-Jun-27 23:33N 40°38' W 074°12'0 0.0
2015-Jun-27 22:33N 40°38' W 074°12'0 0.0
2015-Jun-27 21:33N 40°38' W 074°12'0 0.0
2015-Jun-27 20:32N 40°38' W 074°12'0 0.0
2015-Jun-27 19:32N 40°38' W 074°12'0 0.0
2015-Jun-27 18:33N 40°38' W 074°12'0 0.0
2015-Jun-27 17:33N 40°38' W 074°12'0 0.0
2015-Jun-27 16:33N 40°38' W 074°12'0 0.0
2015-Jun-27 15:33N 40°38' W 074°12'0 0.0
2015-Jun-27 14:33N 40°38' W 074°12'2 2.3
2015-Jun-27 13:31N 40°39' W 074°09'0 0.0
2015-Jun-27 12:31N 40°39' W 074°09'0 0.0
2015-Jun-27 11:33N 40°39' W 074°09'0 0.0
2015-Jun-27 10:33N 40°39' W 074°09'0 0.0
2015-Jun-27 09:33N 40°39' W 074°09'0 0.0
2015-Jun-27 08:33N 40°39' W 074°09'0 0.0
2015-Jun-27 07:29N 40°39' W 074°09'0 0.0
2015-Jun-27 06:33N 40°39' W 074°09'  

Dump ship's entire track history